Aeroporto :
LOGIN :

Iscrizione | Disclaimer

   EN    FR    IT 

 










Sommario :    VFR   VFR Marginale   IFR   IFR Intensivo   IFR Molto Intensivo
Visibilità : 
Base nubi : 
>= 8 km
>= 3000ft
5 / 8 km
1000 / 3000 ft
1500m / 5 km
500 / 1000 ft
800 / 1500m
200 / 500 ft
< 800m
< 200 ft
Simboli :   Temporali  Nebbia  Neve Forte  Precipitazioni Forti  Vento > 20 kt
SIGMETs :   Varie  Temporali  Ghiacco  Turbolenza  Onda orograficha  Ceneri Vulcaniche






- Altitudine del aeroporto : 74 ft
- Codice IATA : LRH


LFBH - La Rochelle Ile de Ré

ULTIMO METAR :
  • 221600Z AUTO 27010KT 9999 OVC023 12/07 Q1033 NOSIG

METARs OBSOLETI :
  • 221530Z AUTO 26010KT 9999 OVC023 12/07 Q1033 NOSIG
  • 221500Z AUTO 26009KT 9999 OVC022 12/07 Q1033 NOSIG
  • 221430Z AUTO 25010KT 220V280 9999 OVC022 12/07 Q1033 NOSIG
  • 221400Z AUTO 24011KT 210V270 9999 OVC022 12/07 Q1032 NOSIG
  • 221330Z AUTO 23010KT 9999 OVC022 12/07 Q1032 NOSIG
  • 221300Z AUTO 24010KT 9999 OVC022 12/07 Q1033 NOSIG

TAF TAF LFBH
Valido dal 22 a 12 ore il 23 a 12 ore UTC


221100Z 2212/2312 25008KT 9999 BKN020
TEMPO 2213/2218 CAVOK
TEMPO 2301/2312 BKN014
ATIS : +33 5 46 00 13 92



MetMap, La meteo Aeronautica in un colpo d'occhio ! - Copyright ORBIFLY Dicembre 2007 - Disclaimer

ORBIFLY MET'MAP TEAM :

Programmazione e sviluppo : Alexandra Zaïnal
Concezione : Baudouin d'Aumeries
Aiuto per la programmazione : Marc-Olivier Méhu
Supporto tecnico e logistico : Manuel Goepfert
Aiuto per la traduzione : Arnaldo La Scala

Contatto : metmap@orbifly.com




FONTI E CREDITI :

   NOAA